createdAt,value
2023-08-12T00:00:51.123Z,17.68
2023-08-12T00:03:18.808Z,17.63
2023-08-12T00:05:47.273Z,17.52
2023-08-12T00:08:14.950Z,17.49
2023-08-12T00:10:44.702Z,17.45
2023-08-12T00:13:14.628Z,17.46
2023-08-12T00:15:42.806Z,17.69
2023-08-12T00:18:10.563Z,17.52
2023-08-12T00:20:39.126Z,17.52
2023-08-12T00:23:06.808Z,17.36
2023-08-12T00:25:34.489Z,17.33
2023-08-12T00:28:03.821Z,17.42
2023-08-12T00:30:31.743Z,17.37
2023-08-12T00:32:59.414Z,17.56
2023-08-12T00:35:27.188Z,17.51
2023-08-12T00:37:54.806Z,17.73
2023-08-12T00:40:22.452Z,17.53
2023-08-12T00:42:50.091Z,17.57
2023-08-12T00:45:19.092Z,17.53
2023-08-12T00:47:46.786Z,17.63
2023-08-12T00:50:14.666Z,17.84
2023-08-12T00:52:42.329Z,17.70
2023-08-12T00:55:10.197Z,18.13
2023-08-12T00:57:37.890Z,17.81
2023-08-12T01:00:05.911Z,18.22
2023-08-12T01:02:35.062Z,17.80
2023-08-12T01:05:02.788Z,17.74
2023-08-12T01:07:30.431Z,17.71
2023-08-12T01:09:58.108Z,17.59
2023-08-12T01:12:28.523Z,17.48
2023-08-12T01:14:58.370Z,17.54
2023-08-12T01:17:26.095Z,17.60
2023-08-12T01:19:55.098Z,17.59
2023-08-12T01:22:23.073Z,17.56
2023-08-12T01:24:53.295Z,17.55
2023-08-12T01:27:21.153Z,17.52
2023-08-12T01:29:49.116Z,17.59
2023-08-12T01:32:17.623Z,17.65
2023-08-12T01:34:49.321Z,17.71
2023-08-12T01:37:22.820Z,17.65
2023-08-12T01:39:52.050Z,17.71
2023-08-12T01:42:20.584Z,17.65
2023-08-12T01:44:48.292Z,17.57
2023-08-12T01:47:15.905Z,17.56
2023-08-12T01:49:43.540Z,17.51
2023-08-12T01:52:11.144Z,17.60
2023-08-12T01:54:39.700Z,17.43
2023-08-12T01:57:10.384Z,17.44
2023-08-12T01:59:39.288Z,17.44
2023-08-12T02:02:06.872Z,17.52
2023-08-12T02:04:34.901Z,17.63
2023-08-12T02:07:02.562Z,17.52
2023-08-12T02:09:30.225Z,17.49
2023-08-12T02:11:57.859Z,17.41
2023-08-12T02:14:26.886Z,17.46
2023-08-12T02:16:54.546Z,17.53
2023-08-12T02:19:22.966Z,17.59
2023-08-12T02:21:50.600Z,17.53
2023-08-12T02:24:18.235Z,17.48
2023-08-12T02:26:45.866Z,17.42
2023-08-12T02:29:15.344Z,17.56
2023-08-12T02:31:44.370Z,17.52
2023-08-12T02:34:12.148Z,17.57
2023-08-12T02:36:39.807Z,17.62
2023-08-12T02:39:07.452Z,17.67
2023-08-12T02:41:35.158Z,17.47
2023-08-12T02:44:02.784Z,17.47
2023-08-12T02:46:30.411Z,17.49
2023-08-12T02:48:59.424Z,17.51
2023-08-12T02:51:27.187Z,17.58
2023-08-12T02:53:54.815Z,17.46
2023-08-12T02:56:22.502Z,17.38
2023-08-12T02:58:50.192Z,17.40
2023-08-12T03:01:17.919Z,17.36
2023-08-12T03:03:45.590Z,17.33
2023-08-12T03:06:14.620Z,17.34
2023-08-12T03:08:42.222Z,17.41
2023-08-12T03:11:10.442Z,17.36
2023-08-12T03:13:38.123Z,17.41
2023-08-12T03:16:06.772Z,17.37
2023-08-12T03:18:34.466Z,17.45
2023-08-12T03:21:02.159Z,17.39
2023-08-12T03:23:31.229Z,17.44
2023-08-12T03:25:59.482Z,17.57
2023-08-12T03:28:27.561Z,17.63
2023-08-12T03:30:55.810Z,17.74
2023-08-12T03:33:25.749Z,17.67
2023-08-12T03:35:55.038Z,17.84
2023-08-12T03:38:22.947Z,17.85
2023-08-12T03:40:52.871Z,17.83
2023-08-12T03:43:21.312Z,17.63
2023-08-12T03:45:49.891Z,17.74
2023-08-12T03:48:20.515Z,17.51
2023-08-12T03:50:48.682Z,17.44
2023-08-12T03:53:16.515Z,17.42
2023-08-12T03:55:44.566Z,17.32
2023-08-12T03:58:15.834Z,17.36
2023-08-12T04:00:43.954Z,17.39
2023-08-12T04:03:15.390Z,17.36
2023-08-12T04:05:49.037Z,17.39
2023-08-12T04:08:17.535Z,17.48
2023-08-12T04:10:46.553Z,17.46
2023-08-12T04:13:14.337Z,17.50
2023-08-12T04:15:43.306Z,17.56
2023-08-12T04:18:11.623Z,17.53
2023-08-12T04:20:39.289Z,17.53
2023-08-12T04:23:06.927Z,17.52
2023-08-12T04:25:34.663Z,17.52
2023-08-12T04:28:07.257Z,17.54
2023-08-12T04:30:36.036Z,17.63
2023-08-12T04:33:06.729Z,17.56
2023-08-12T04:35:34.446Z,17.61
2023-08-12T04:38:02.589Z,17.65
2023-08-12T04:40:30.652Z,17.68
2023-08-12T04:42:58.996Z,17.74
2023-08-12T04:45:26.708Z,17.77
2023-08-12T04:47:54.999Z,17.92
2023-08-12T04:50:24.778Z,18.04
2023-08-12T04:52:52.410Z,18.28
2023-08-12T04:55:21.147Z,18.16
2023-08-12T04:57:48.986Z,18.01
2023-08-12T05:00:17.018Z,17.97
2023-08-12T05:02:44.696Z,17.89
2023-08-12T05:05:13.694Z,18.20
2023-08-12T05:07:45.397Z,18.32
2023-08-12T05:10:13.682Z,18.10
2023-08-12T05:12:41.376Z,18.06
2023-08-12T05:15:09.758Z,17.97
2023-08-12T05:17:37.427Z,17.99
2023-08-12T05:20:05.796Z,17.99
2023-08-12T05:22:33.806Z,18.01
2023-08-12T05:25:02.748Z,18.03
2023-08-12T05:27:30.363Z,18.28
2023-08-12T05:29:57.969Z,18.15
2023-08-12T05:32:25.603Z,18.35
2023-08-12T05:34:53.906Z,18.69
2023-08-12T05:37:21.529Z,18.89
2023-08-12T05:39:49.148Z,19.06
2023-08-12T05:42:18.116Z,19.20
2023-08-12T05:44:45.833Z,19.39
2023-08-12T05:47:13.451Z,19.53
2023-08-12T05:49:41.064Z,19.77
2023-08-12T05:52:08.689Z,19.99
2023-08-12T05:54:36.309Z,20.09
2023-08-12T05:57:04.064Z,20.34
2023-08-12T05:59:33.042Z,20.75
2023-08-12T06:02:00.742Z,20.90
2023-08-12T06:04:28.377Z,21.19
2023-08-12T06:06:55.950Z,21.48
2023-08-12T06:09:23.557Z,21.62
2023-08-12T06:11:51.161Z,21.50
2023-08-12T06:14:18.790Z,21.68
2023-08-12T06:16:47.724Z,21.77
2023-08-12T06:19:15.338Z,21.79
2023-08-12T06:21:42.928Z,21.73
2023-08-12T06:24:10.554Z,21.92
2023-08-12T06:26:38.159Z,21.87
2023-08-12T06:29:06.342Z,21.84
2023-08-12T06:31:34.141Z,21.67
2023-08-12T06:34:03.144Z,21.54
2023-08-12T06:36:30.750Z,21.36
2023-08-12T06:38:58.521Z,21.40
2023-08-12T06:41:26.149Z,21.43
2023-08-12T06:43:53.742Z,21.47
2023-08-12T06:46:21.431Z,21.48
2023-08-12T06:48:49.072Z,21.51
2023-08-12T06:51:18.050Z,21.68
2023-08-12T06:53:45.708Z,22.04
2023-08-12T06:56:13.365Z,22.08
2023-08-12T06:58:40.969Z,22.26
2023-08-12T07:01:08.601Z,22.55
2023-08-12T07:03:36.252Z,22.62
2023-08-12T07:06:03.884Z,22.78
2023-08-12T07:08:33.541Z,22.83
2023-08-12T07:11:01.173Z,23.16
2023-08-12T07:13:28.733Z,23.36
2023-08-12T07:15:56.384Z,23.48
2023-08-12T07:18:24.642Z,23.77
2023-08-12T07:20:52.379Z,24.04
2023-08-12T07:23:20.007Z,24.38
2023-08-12T07:25:49.161Z,24.39
2023-08-12T07:28:16.767Z,24.45
2023-08-12T07:30:44.496Z,24.18
2023-08-12T07:33:12.192Z,24.20
2023-08-12T07:35:39.860Z,24.29
2023-08-12T07:38:07.505Z,24.36
2023-08-12T07:40:35.129Z,24.54
2023-08-12T07:43:04.871Z,24.88
2023-08-12T07:45:32.506Z,24.81
2023-08-12T07:48:00.112Z,24.86
2023-08-12T07:50:27.775Z,24.91
2023-08-12T07:52:55.377Z,25.15
2023-08-12T07:55:25.574Z,25.08
2023-08-12T07:57:57.776Z,25.39
2023-08-12T08:00:26.874Z,25.52
2023-08-12T08:02:54.737Z,25.71
2023-08-12T08:05:27.073Z,25.55
2023-08-12T08:08:00.586Z,25.40
2023-08-12T08:10:28.316Z,25.50
2023-08-12T08:12:58.620Z,25.65
2023-08-12T08:15:27.886Z,25.57
2023-08-12T08:17:55.789Z,25.61
2023-08-12T08:20:23.596Z,25.78
2023-08-12T08:22:56.385Z,25.87
2023-08-12T08:25:24.078Z,25.73
2023-08-12T08:27:51.762Z,25.71
2023-08-12T08:30:20.530Z,25.58
2023-08-12T08:32:49.770Z,25.69
2023-08-12T08:35:17.738Z,25.51
2023-08-12T08:37:45.411Z,25.42
2023-08-12T08:40:15.595Z,25.47
2023-08-12T08:42:44.878Z,25.38
2023-08-12T08:45:14.458Z,25.62
2023-08-12T08:47:44.623Z,25.59
2023-08-12T08:50:13.663Z,25.83
2023-08-12T08:52:50.313Z,25.98
2023-08-12T08:55:19.110Z,26.07
2023-08-12T08:57:48.457Z,26.02
2023-08-12T09:00:17.914Z,26.23
2023-08-12T09:02:46.453Z,26.23
2023-08-12T09:05:15.575Z,26.23
2023-08-12T09:07:44.113Z,26.37
2023-08-12T09:10:14.005Z,26.48
2023-08-12T09:12:43.303Z,26.35
2023-08-12T09:15:11.529Z,26.41
2023-08-12T09:17:39.756Z,26.10
2023-08-12T09:20:12.377Z,26.29
2023-08-12T09:22:45.620Z,26.17
2023-08-12T09:25:14.032Z,26.20
2023-08-12T09:27:41.662Z,26.13
2023-08-12T09:30:14.361Z,26.14
2023-08-12T09:32:42.037Z,26.29
2023-08-12T09:35:12.871Z,26.34
2023-08-12T09:37:49.184Z,26.36
2023-08-12T09:40:16.954Z,26.66
2023-08-12T09:42:48.161Z,26.81
2023-08-12T09:45:16.520Z,26.56
2023-08-12T09:47:44.432Z,26.70
2023-08-12T09:50:12.508Z,26.65
2023-08-12T09:52:40.366Z,26.73
2023-08-12T09:55:09.906Z,26.64
2023-08-12T09:57:38.038Z,26.78
2023-08-12T10:00:14.513Z,26.64
2023-08-12T10:02:43.637Z,26.53
2023-08-12T10:05:11.606Z,26.61
2023-08-12T10:07:39.578Z,26.58
2023-08-12T10:10:10.473Z,26.44
2023-08-12T10:12:38.437Z,26.46
2023-08-12T10:15:09.524Z,26.33
2023-08-12T10:17:44.779Z,26.50
2023-08-12T10:20:14.726Z,26.66
2023-08-12T10:22:42.646Z,26.78
2023-08-12T10:25:16.507Z,26.94
2023-08-12T10:27:45.206Z,26.91
2023-08-12T10:30:20.660Z,27.16
2023-08-12T10:32:49.083Z,27.02
2023-08-12T10:35:23.269Z,27.12
2023-08-12T10:37:52.641Z,27.10
2023-08-12T10:40:24.629Z,27.01
2023-08-12T10:42:56.175Z,27.00
2023-08-12T10:45:26.119Z,27.03
2023-08-12T10:47:54.339Z,27.08
2023-08-12T10:50:22.517Z,27.03
2023-08-12T10:52:54.292Z,27.07
2023-08-12T10:55:22.458Z,27.11
2023-08-12T10:57:53.710Z,26.99
2023-08-12T11:00:24.878Z,27.12
2023-08-12T11:02:57.893Z,27.15
2023-08-12T11:05:40.220Z,27.40
2023-08-12T11:08:07.865Z,27.35
2023-08-12T11:10:36.089Z,27.06
2023-08-12T11:13:07.298Z,27.12
2023-08-12T11:15:42.418Z,26.92
2023-08-12T11:18:10.566Z,26.92
2023-08-12T11:20:38.346Z,26.78
2023-08-12T11:23:08.436Z,26.73
2023-08-12T11:25:36.412Z,26.92
2023-08-12T11:28:07.559Z,26.94
2023-08-12T11:30:35.512Z,26.73
2023-08-12T11:33:10.752Z,26.76
2023-08-12T11:35:41.361Z,26.89
2023-08-12T11:38:11.303Z,27.00
2023-08-12T11:40:39.029Z,27.00
2023-08-12T11:43:08.283Z,26.98
2023-08-12T11:45:36.009Z,26.86
2023-08-12T11:48:03.974Z,27.08
2023-08-12T11:50:32.344Z,27.28
2023-08-12T11:53:01.546Z,27.32
2023-08-12T11:55:30.929Z,27.44
2023-08-12T11:58:00.011Z,27.66
2023-08-12T12:00:28.992Z,27.71
2023-08-12T12:02:59.731Z,27.75
2023-08-12T12:05:31.088Z,27.76
2023-08-12T12:07:58.876Z,27.57
2023-08-12T12:10:31.823Z,27.51
2023-08-12T12:13:03.718Z,27.58
2023-08-12T12:15:35.437Z,27.92
2023-08-12T12:18:03.662Z,28.27
2023-08-12T12:20:31.494Z,28.51
2023-08-12T12:22:59.175Z,28.76
2023-08-12T12:25:27.327Z,28.85
2023-08-12T12:27:57.071Z,28.63
2023-08-12T12:30:26.771Z,28.76
2023-08-12T12:32:56.112Z,28.73
2023-08-12T12:35:25.078Z,28.78
2023-08-12T12:37:52.677Z,28.63
2023-08-12T12:40:20.386Z,28.89
2023-08-12T12:42:48.296Z,28.90
2023-08-12T12:45:15.935Z,28.82
2023-08-12T12:47:43.715Z,28.69
2023-08-12T12:50:14.693Z,28.42
2023-08-12T12:52:45.483Z,28.12
2023-08-12T12:55:13.045Z,28.07
2023-08-12T12:57:40.857Z,28.10
2023-08-12T13:00:12.901Z,28.09
2023-08-12T13:02:45.145Z,27.96
2023-08-12T13:05:14.389Z,28.02
2023-08-12T13:07:41.993Z,28.05
2023-08-12T13:10:10.125Z,27.99
2023-08-12T13:12:37.990Z,27.93
2023-08-12T13:15:05.930Z,27.86
2023-08-12T13:17:33.713Z,28.06
2023-08-12T13:20:02.362Z,28.13
2023-08-12T13:22:33.476Z,28.52
2023-08-12T13:25:01.137Z,28.97
2023-08-12T13:27:31.645Z,28.78
2023-08-12T13:30:01.446Z,28.46
2023-08-12T13:32:29.186Z,28.19
2023-08-12T13:34:56.889Z,28.21
2023-08-12T13:37:26.682Z,28.15
2023-08-12T13:39:56.698Z,28.28
2023-08-12T13:46:05.273Z,28.32
2023-08-12T13:48:33.149Z,28.17
2023-08-12T13:51:01.948Z,28.01
2023-08-12T13:53:29.819Z,28.31
2023-08-12T13:55:58.847Z,28.46
2023-08-12T13:58:28.297Z,28.71
2023-08-12T14:00:56.079Z,28.58
2023-08-12T14:03:23.708Z,28.69
2023-08-12T14:05:51.532Z,28.83
2023-08-12T14:08:19.250Z,29.03
2023-08-12T14:10:51.309Z,29.40
2023-08-12T14:13:20.273Z,29.20
2023-08-12T14:15:47.950Z,29.26
2023-08-12T14:18:15.739Z,29.36
2023-08-12T14:20:43.362Z,29.57
2023-08-12T14:23:11.408Z,29.44
2023-08-12T14:25:39.187Z,29.65
2023-08-12T14:28:10.010Z,29.18
2023-08-12T14:30:41.745Z,29.09
2023-08-12T14:33:09.956Z,29.25
2023-08-12T14:35:38.050Z,29.18
2023-08-12T14:38:30.005Z,29.21
2023-08-12T14:40:58.267Z,29.16
2023-08-12T14:43:28.396Z,29.26
2023-08-12T14:45:57.803Z,29.36
2023-08-12T14:48:27.161Z,29.30
2023-08-12T14:51:00.887Z,29.35
2023-08-12T14:53:29.382Z,28.93
2023-08-12T14:55:57.030Z,28.78
2023-08-12T14:58:24.769Z,28.67
2023-08-12T15:01:12.347Z,28.39
2023-08-12T15:03:41.436Z,28.35
2023-08-12T15:06:11.460Z,28.40
2023-08-12T15:20:00.681Z,28.58
2023-08-12T15:22:40.153Z,27.39
2023-08-12T15:25:28.967Z,24.66
2023-08-12T15:30:52.821Z,22.66
2023-08-12T15:33:20.721Z,22.31
2023-08-12T15:35:50.193Z,21.66
2023-08-12T15:38:18.057Z,21.11
2023-08-12T15:40:45.944Z,20.49
2023-08-12T15:43:16.066Z,20.71
2023-08-12T15:45:44.164Z,20.89
2023-08-12T15:48:11.942Z,20.78
2023-08-12T15:50:43.054Z,20.97
2023-08-12T15:53:12.240Z,20.98
2023-08-12T15:55:40.325Z,20.57
2023-08-12T15:58:08.075Z,20.69
2023-08-12T16:00:36.108Z,20.53
2023-08-12T16:03:13.368Z,20.12
2023-08-12T16:05:43.148Z,20.59
2023-08-12T16:08:12.291Z,19.94
2023-08-12T16:10:43.253Z,20.24
2023-08-12T16:13:15.835Z,20.65
2023-08-12T16:15:44.781Z,20.57
2023-08-12T16:18:16.031Z,20.47
2023-08-12T16:20:47.369Z,20.14
2023-08-12T16:23:17.437Z,20.50
2023-08-12T16:25:46.303Z,20.15
2023-08-12T16:28:14.027Z,20.18
2023-08-12T16:30:41.893Z,20.32
2023-08-12T16:33:10.144Z,20.40
2023-08-12T16:35:37.894Z,20.80
2023-08-12T16:38:13.603Z,20.77
2023-08-12T16:40:51.098Z,20.80
2023-08-12T16:43:18.882Z,20.86
2023-08-12T16:45:51.528Z,21.22
2023-08-12T16:48:23.254Z,21.10
2023-08-12T16:50:51.625Z,21.13
2023-08-12T16:53:20.966Z,21.30
2023-08-12T16:55:51.780Z,21.16
2023-08-12T16:58:20.023Z,21.12
2023-08-12T17:00:53.202Z,21.07
2023-08-12T17:03:21.137Z,20.63
2023-08-12T17:06:02.925Z,20.71
2023-08-12T17:08:35.736Z,20.75
2023-08-12T17:11:13.889Z,20.80
2023-08-12T17:13:46.427Z,20.94
2023-08-12T17:16:15.828Z,20.76
2023-08-12T17:18:43.656Z,20.60
2023-08-12T17:21:11.530Z,20.87
2023-08-12T17:23:39.514Z,21.02
2023-08-12T17:26:16.549Z,21.10
2023-08-12T17:28:47.592Z,21.02
2023-08-12T17:31:19.321Z,21.15
2023-08-12T17:33:47.267Z,21.27
2023-08-12T17:36:18.149Z,20.92
2023-08-12T17:38:48.206Z,20.83
2023-08-12T17:41:36.142Z,20.92
2023-08-12T17:44:27.261Z,20.97
2023-08-12T17:47:04.147Z,21.08
2023-08-12T17:49:35.476Z,21.24
2023-08-12T17:52:03.432Z,20.77
2023-08-12T17:54:31.983Z,20.94
2023-08-12T17:57:02.417Z,20.66
2023-08-12T17:59:33.413Z,20.57
2023-08-12T18:02:03.646Z,20.54
2023-08-12T18:04:34.871Z,20.61
2023-08-12T18:07:06.909Z,20.73
2023-08-12T18:09:34.846Z,20.61
2023-08-12T18:12:06.653Z,20.77
2023-08-12T18:14:34.591Z,20.77
2023-08-12T18:17:02.520Z,20.86
2023-08-12T18:19:31.800Z,21.03
2023-08-12T18:21:59.519Z,20.84
2023-08-12T18:24:29.396Z,20.75
2023-08-12T18:26:58.060Z,20.42
2023-08-12T18:29:29.935Z,20.47
2023-08-12T18:31:59.714Z,20.45
2023-08-12T18:34:27.627Z,20.63
2023-08-12T18:36:55.456Z,20.67
2023-08-12T18:39:26.990Z,20.30
2023-08-12T18:41:59.091Z,20.27
2023-08-12T18:44:30.471Z,20.36
2023-08-12T18:47:00.878Z,20.53
2023-08-12T18:49:31.727Z,20.73
2023-08-12T18:52:01.438Z,20.59
2023-08-12T18:54:29.533Z,20.09
2023-08-12T18:56:57.383Z,19.95
2023-08-12T18:59:31.111Z,19.94
2023-08-12T19:02:00.190Z,20.00
2023-08-12T19:04:28.899Z,20.29
2023-08-12T19:06:58.894Z,20.46
2023-08-12T19:09:26.897Z,20.58
2023-08-12T19:11:56.177Z,20.57
2023-08-12T19:14:27.994Z,20.56
2023-08-12T19:16:55.767Z,20.35
2023-08-12T19:19:24.945Z,20.26
2023-08-12T19:21:52.626Z,20.25
2023-08-12T19:24:20.267Z,20.19
2023-08-12T19:26:48.108Z,19.94
2023-08-12T19:29:15.708Z,19.88
2023-08-12T19:31:50.606Z,20.17
2023-08-12T19:34:19.732Z,20.40
2023-08-12T19:36:48.867Z,20.50
2023-08-12T19:39:16.641Z,20.60
2023-08-12T19:41:44.459Z,20.50
2023-08-12T19:44:12.403Z,20.37
2023-08-12T19:46:40.670Z,20.34
2023-08-12T19:49:08.597Z,20.49
2023-08-12T19:51:42.202Z,20.34
2023-08-12T19:54:12.337Z,20.18
2023-08-12T19:56:44.294Z,20.47
2023-08-12T19:59:13.601Z,20.58
2023-08-12T20:01:41.494Z,20.09
2023-08-12T20:04:09.139Z,20.13
2023-08-12T20:06:37.002Z,20.26
2023-08-12T20:09:13.746Z,20.36
2023-08-12T20:11:45.704Z,20.42
2023-08-12T20:14:13.504Z,20.53
2023-08-12T20:16:41.365Z,20.63
2023-08-12T20:19:09.663Z,20.61
2023-08-12T20:21:37.325Z,20.53
2023-08-12T20:24:05.329Z,20.57
2023-08-12T20:26:35.406Z,20.48
2023-08-12T20:29:04.760Z,20.42
2023-08-12T20:31:32.520Z,20.33
2023-08-12T20:34:01.715Z,20.38
2023-08-12T20:36:56.490Z,20.39
2023-08-12T20:39:24.313Z,20.48
2023-08-12T20:41:54.200Z,20.42
2023-08-12T20:44:23.383Z,20.22
2023-08-12T20:46:51.438Z,20.41
2023-08-12T20:49:21.558Z,20.26
2023-08-12T20:51:52.008Z,20.29
2023-08-12T20:54:20.163Z,20.18
2023-08-12T20:56:57.818Z,20.13
2023-08-12T20:59:36.227Z,20.18
2023-08-12T21:02:11.026Z,20.25
2023-08-12T21:04:43.151Z,19.93
2023-08-12T21:07:13.405Z,20.09
2023-08-12T21:09:41.123Z,19.93
2023-08-12T21:12:12.529Z,19.86
2023-08-12T21:14:41.918Z,19.84
2023-08-12T21:17:09.891Z,19.59
2023-08-12T21:19:40.734Z,19.71
2023-08-12T21:22:08.354Z,19.58
2023-08-12T21:24:36.160Z,19.58
2023-08-12T21:27:04.101Z,19.65
2023-08-12T21:29:32.298Z,19.79
2023-08-12T21:32:01.462Z,19.79
2023-08-12T21:34:31.392Z,19.80
2023-08-12T21:36:59.074Z,19.78
2023-08-12T21:39:28.883Z,19.78
2023-08-12T21:41:56.597Z,19.82
2023-08-12T21:44:26.602Z,19.16
2023-08-12T21:46:54.327Z,19.37
2023-08-12T21:49:23.752Z,19.60
2023-08-12T21:51:51.502Z,19.65
2023-08-12T21:54:19.303Z,19.65
2023-08-12T21:56:47.055Z,19.69
2023-08-12T21:59:14.760Z,19.65
2023-08-12T22:01:42.498Z,19.86
2023-08-12T22:04:10.305Z,19.69
2023-08-12T22:06:39.414Z,19.46
2023-08-12T22:09:07.531Z,19.63
2023-08-12T22:11:35.439Z,19.72
2023-08-12T22:14:03.093Z,19.70
2023-08-12T22:16:31.900Z,19.72
2023-08-12T22:18:59.645Z,19.59
2023-08-12T22:21:28.197Z,19.86
2023-08-12T22:23:57.197Z,19.90
2023-08-12T22:26:25.012Z,19.99
2023-08-12T22:28:52.688Z,20.10
2023-08-12T22:31:20.451Z,20.02
2023-08-12T22:33:48.118Z,20.10
2023-08-12T22:36:15.986Z,19.94
2023-08-12T22:38:43.635Z,19.83
2023-08-12T22:41:12.768Z,19.85
2023-08-12T22:43:40.405Z,19.66
2023-08-12T22:46:08.112Z,19.29
2023-08-12T22:48:36.778Z,19.68
2023-08-12T22:51:04.588Z,19.87
2023-08-12T22:53:32.373Z,19.90
2023-08-12T22:56:00.283Z,19.86
2023-08-12T22:58:29.379Z,19.78
2023-08-12T23:00:57.186Z,19.66
2023-08-12T23:03:25.053Z,19.85
2023-08-12T23:05:52.997Z,19.77
2023-08-12T23:08:20.881Z,19.85
2023-08-12T23:10:48.521Z,20.07
2023-08-12T23:13:16.281Z,20.04
2023-08-12T23:15:45.376Z,20.00
2023-08-12T23:18:13.481Z,20.02
2023-08-12T23:20:41.117Z,20.20
2023-08-12T23:23:08.930Z,20.17
2023-08-12T23:25:36.677Z,20.01
2023-08-12T23:28:04.536Z,19.87
2023-08-12T23:30:32.299Z,19.98
2023-08-12T23:33:01.437Z,19.98
2023-08-12T23:35:29.345Z,19.95
2023-08-12T23:37:57.169Z,20.26
2023-08-12T23:40:24.867Z,20.37
2023-08-12T23:42:52.604Z,20.30
2023-08-12T23:45:20.542Z,20.23
2023-08-12T23:47:48.300Z,20.17
2023-08-12T23:50:17.544Z,19.97
2023-08-12T23:52:45.230Z,20.03
2023-08-12T23:55:12.887Z,20.14
2023-08-12T23:57:40.600Z,19.80
